• Join FlightAware (Why Join?)
  • Login
  • US Flag 
05:35AM EST


 

Airport Tracker/Info


-or-


 

Live Flight TrackerFlight Track Log ✈ TYR456 ✈ 24-Apr-2013 ✈ EGLL / LHR - LOWW / VIE

Flight Track Log - Related Links

Times and Time Zones

All times are in EDT time to prevent confusion due to time zone crossing. See the TYR456 flight status page for this flight to view local times or setup timezone preferences in your user account.

Time Position Orientation Groundspeed Altitude Reporting Facility
EDT Latitude Longitude Course Direction KTS MPH feet Rate Location/Type
03:02PM 51.3935 0.2544 100° East  Level Estimated
03:03PM 51.3718 0.4329 101° East  Level Estimated
03:04PM 51.3499 0.6113 101° East  Level Estimated
03:05PM 51.3276 0.7895 101° East  Level Estimated
03:06PM 51.3052 0.9675 101° East  Level Estimated
03:07PM 51.2824 1.1453 101° East  Level Estimated
03:08PM 51.2594 1.3230 102° East  Level Estimated
03:09PM 51.2361 1.5005 102° East  Level Estimated
03:10PM 51.2125 1.6778 102° East  Level Estimated
03:11PM 51.1887 1.8549 102° East  Level Estimated
03:12PM 51.1646 2.0318 102° East  Level Estimated
03:13PM 51.1402 2.2086 102° East  Level Estimated
03:14PM 51.1156 2.3851 102° East  Level Estimated
03:15PM 51.0906 2.5615 103° East  Level Estimated
03:16PM 51.0655 2.7377 103° East  Level Estimated
03:17PM 51.0401 2.9137 103° East  Level Estimated
03:18PM 51.0144 3.0895 103° East  Level Estimated
03:19PM 50.9884 3.2651 103° East  Level Estimated
03:20PM 50.9622 3.4405 103° East  Level Estimated
03:21PM 50.9357 3.6157 103° East  Level Estimated
03:22PM 50.9090 3.7907 104° East  Level Estimated
03:23PM 50.8819 3.9655 104° East  Level Estimated
03:24PM 50.8547 4.1401 104° East  Level Estimated
03:25PM 50.8271 4.3145 104° East  Level Estimated
03:26PM 50.7994 4.4887 104° East  Level Estimated
03:27PM 50.7713 4.6627 104° East  Level Estimated
03:28PM 50.7430 4.8364 104° East  Level Estimated
03:29PM 50.7144 5.0100 105° East  Level Estimated
03:30PM 50.6856 5.1834 105° East  Level Estimated
03:31PM 50.6565 5.3565 105° East  Level Estimated
03:32PM 50.6272 5.5294 105° East  Level Estimated
03:33PM 50.5976 5.7021 105° East  Level Estimated
03:34PM 50.5678 5.8746 105° East  Level Estimated
03:35PM 50.5377 6.0468 105° East  Level Estimated
03:36PM 50.5073 6.2189 105° East  Level Estimated
03:37PM 50.4767 6.3907 106° East  Level Estimated
03:38PM 50.4459 6.5623 106° East  Level Estimated
03:39PM 50.4148 6.7337 106° East  Level Estimated
03:40PM 50.3834 6.9048 106° East  Level Estimated
03:41PM 50.3518 7.0757 106° East  Level Estimated
03:42PM 50.3199 7.2464 106° East  Level Estimated
03:43PM 50.2878 7.4169 106° East  Level Estimated
03:44PM 50.2555 7.5871 106° East  Level Estimated
03:45PM 50.2229 7.7571 107° East  Level Estimated
03:46PM 50.1900 7.9269 107° East  Level Estimated
03:47PM 50.1569 8.0964 107° East  Level Estimated
03:48PM 50.1235 8.2657 107° East  Level Estimated
03:49PM 50.0899 8.4348 107° East  Level Estimated
03:50PM 50.0561 8.6036 107° East  Level Estimated
03:51PM 50.0220 8.7722 107° East  Level Estimated
03:52PM 49.9877 8.9405 108° East  Level Estimated
03:53PM 49.9531 9.1086 108° East  Level Estimated
03:54PM 49.9183 9.2765 108° East  Level Estimated
03:55PM 49.8833 9.4441 108° East  Level Estimated
03:56PM 49.8479 9.6115 108° East  Level Estimated
03:57PM 49.8124 9.7786 108° East  Level Estimated
03:58PM 49.7766 9.9455 108° East  Level Estimated
03:59PM 49.7406 10.1121 108° East  Level Estimated
04:00PM 49.7043 10.2785 109° East  Level Estimated
04:01PM 49.6679 10.4446 109° East  Level Estimated
04:02PM 49.6311 10.6105 109° East  Level Estimated
04:03PM 49.5942 10.7762 109° East  Level Estimated
04:04PM 49.5570 10.9416 109° East  Level Estimated
04:05PM 49.5195 11.1067 109° East  Level Estimated
04:06PM 49.4818 11.2716 109° East  Level Estimated
04:07PM 49.4439 11.4362 109° East  Level Estimated
04:08PM 49.4058 11.6006 110° East  Level Estimated
04:09PM 49.3674 11.7647 110° East  Level Estimated
04:10PM 49.3288 11.9286 110° East  Level Estimated
04:11PM 49.2900 12.0922 110° East  Level Estimated
04:12PM 49.2509 12.2555 110° East  Level Estimated
04:13PM 49.2116 12.4186 110° East  Level Estimated
04:14PM 49.1721 12.5814 110° East  Level Estimated
04:15PM 49.1323 12.7440 110° East  Level Estimated
04:16PM 49.0924 12.9063 111° Southeast  Level Estimated
04:17PM 49.0521 13.0683 111° Southeast  Level Estimated
04:18PM 49.0117 13.2301 111° Southeast  Level Estimated
04:19PM 48.9710 13.3916 111° Southeast  Level Estimated
04:20PM 48.9301 13.5528 111° Southeast  Level Estimated
04:21PM 48.8890 13.7138 111° Southeast  Level Estimated
04:22PM 48.8477 13.8745 111° Southeast  Level Estimated
04:23PM 48.8061 14.0350 111° Southeast  Level Estimated
04:24PM 48.7644 14.1952 112° Southeast  Level Estimated
04:25PM 48.7224 14.3551 112° Southeast  Level Estimated
04:26PM 48.6801 14.5148 112° Southeast  Level Estimated
04:27PM 48.6377 14.6742 112° Southeast  Level Estimated
04:28PM 48.5950 14.8333 112° Southeast  Level Estimated
04:29PM 48.5522 14.9921 112° Southeast  Level Estimated
04:30PM 48.5091 15.1507 112° Southeast  Level Estimated
04:31PM 48.4657 15.3090 112° Southeast  Level Estimated
04:32PM 48.4222 15.4670 112° Southeast  Level Estimated
04:33PM 48.3784 15.6248 113° Southeast  Level Estimated
04:34PM 48.3345 15.7823 113° Southeast  Level Estimated
04:35PM 48.2903 15.9395 113° Southeast  Level Estimated
04:36PM 48.2459 16.0965 113° Southeast  Level Estimated
04:37PM 48.2013 16.2532 113° Southeast  Level Estimated
04:38PM 48.1565 16.4096 113° Southeast  Level Estimated
04:39PM 48.1115 16.5657 113° Southeast  Level Estimated
04:40PM 48.1103 16.5697 114° Southeast  Level Estimated
04:41PM 48.1103 16.5697 146° Southeast  Level Estimated
04:42PM 48.1103 16.5697 146° Southeast  Level Estimated
04:43PM 48.1103 16.5697 146° Southeast  Level Estimated
04:44PM 48.1103 16.5697 146° Southeast  Level Estimated
04:45PM 48.1103 16.5697 146° Southeast  Level Estimated
04:46PM 48.1103 16.5697 146° Southeast  Level Estimated
04:47PM 48.1103 16.5697 146° Southeast  Level Estimated
04:48PM 48.1103 16.5697 146° Southeast  Level Estimated
04:49PM 48.1103 16.5697 146° Southeast  Level Estimated
04:50PM 48.1103 16.5697 146° Southeast  Level Estimated
04:51PM 48.1103 16.5697 146° Southeast  Level Estimated